Thursday, August 16, 2018, 9:58 AM EDT
Back to Local

KBAF, Westfield Barnes Municipal

Location: Westfield, MA, United States Lat: 42.167
Local Time: 9:58 AM EDT (13:58 GMT) Lon: -72.717
Time Zone: US/Eastern Elev: 272 ft

Show me the last for .
Show Decoded

2018-08-16 08:53 METAR KBAF 161253Z 27005KT 10SM CLR 26/21 A3002 RMK AO2 SLP164 T02610211 =
2018-08-16 07:53 METAR KBAF 161153Z 00000KT 9SM CLR 22/21 A3002 RMK AO2 SLP161 T02220211 10222
                 20189 53013 =
2018-08-16 06:53 METAR KBAF 161053Z 00000KT 10SM CLR 20/20 A3000 RMK AO2 SLP157 T02000200 =
2018-08-16 06:17 METAR KBAF 161017Z AUTO 00000KT 3SM BR CLR 19/19 A2999 RMK AO2 T01890189 =
2018-08-16 06:06 METAR KBAF 161006Z AUTO 18003KT 2SM BR CLR 19/19 A2999 RMK AO2 T01890189 =
2018-08-16 05:53 METAR KBAF 160953Z AUTO 00000KT 4SM BR CLR 19/19 A2999 RMK AO2 SLP152 T01940194
                 =
2018-08-16 04:53 METAR KBAF 160853Z AUTO 19004KT 7SM CLR 20/19 A2998 RMK AO2 SLP148 T02000194
                 53008 =
2018-08-16 03:53 METAR KBAF 160753Z AUTO 00000KT 4SM BR CLR 20/20 A2996 RMK AO2 SLP142 T02000200
                 =
2018-08-16 02:53 METAR KBAF 160653Z AUTO 00000KT 9SM CLR 21/20 A2996 RMK AO2 SLP141 T02060200 =
2018-08-16 01:53 METAR KBAF 160553Z AUTO 19003KT 10SM CLR 22/21 A2995 RMK AO2 SLP139 T02170206
                 10261 20211 51007 =
2018-08-16 00:53 METAR KBAF 160453Z AUTO 00000KT 10SM CLR 22/21 A2995 RMK AO2 SLP138 T02170211
                 403170194 =
2018-08-15 23:53 METAR KBAF 160353Z AUTO 00000KT 10SM CLR 23/21 A2994 RMK AO2 SLP135 T02280211 =
2018-08-15 22:53 METAR KBAF 160253Z AUTO 15003KT 10SM CLR 22/22 A2993 RMK AO2 SLP132 T02170217
                 50010 =
2018-08-15 21:53 METAR KBAF 160153Z 17006KT 10SM CLR 22/22 A2993 RMK AO2 SLP133 T02220217 =
2018-08-15 20:53 METAR KBAF 160053Z 18003KT 10SM CLR 23/22 A2992 RMK AO2 SLP130 T02330217 =
2018-08-15 19:53 METAR KBAF 152353Z 26004KT 10SM CLR 26/21 A2990 RMK AO2 SLP122 T02610211 10317
                 20256 53012 =
2018-08-15 18:53 METAR KBAF 152253Z AUTO 28006KT 10SM CLR 28/20 A2988 RMK AO2 SLP113 T02830200 =
2018-08-15 17:53 METAR KBAF 152153Z 28005KT 10SM CLR 29/19 A2986 RMK AO2 SLP110 T02940189 =
2018-08-15 16:53 METAR KBAF 152053Z 30008KT 10SM CLR 31/19 A2986 RMK AO2 SLP109 T03060194 53001 =
2018-08-15 15:53 METAR KBAF 151953Z 28010KT 10SM CLR 31/19 A2986 RMK AO2 SLP108 T03110194 =
2018-08-15 14:53 METAR KBAF 151853Z 31010KT 10SM FEW050 32/19 A2986 RMK AO2 SLP109 T03170189 =
2018-08-15 13:53 METAR KBAF 151753Z 32005KT 10SM FEW041 FEW050 BKN065 31/20 A2986 RMK AO2 SLP108
                 T03060200 10306 20206 57004 =
2018-08-15 12:53 METAR KBAF 151653Z VRB06KT 10SM SCT039 BKN049 29/20 A2987 RMK AO2 SLP110
                 T02940200 =
2018-08-15 11:53 METAR KBAF 151553Z 31009KT 10SM FEW032 29/20 A2987 RMK AO2 SLP111 T02890200 =
2018-08-15 10:53 METAR KBAF 151453Z 29006KT 10SM CLR 27/20 A2987 RMK AO2 SLP113 T02720200 51004 =
2018-08-15 10:29 METAR KBAF 151429Z 28005KT 10SM SCT025 26/20 A2987 RMK AO2 T02610200 =

Support USWX by starting your Amazon purchase here.